createdAt,value
2022-12-06T00:00:51.874Z,4.90
2022-12-06T00:03:19.341Z,4.37
2022-12-06T00:05:46.742Z,4.40
2022-12-06T00:11:04.540Z,4.70
2022-12-06T00:13:31.822Z,4.47
2022-12-06T00:16:02.063Z,3.47
2022-12-06T00:18:29.351Z,3.10
2022-12-06T00:20:56.629Z,3.53
2022-12-06T00:23:31.737Z,3.47
2022-12-06T00:26:21.485Z,3.67
2022-12-06T00:28:55.451Z,3.77
2022-12-06T00:31:25.319Z,3.60
2022-12-06T00:33:53.151Z,3.80
2022-12-06T00:36:21.615Z,3.80
2022-12-06T00:38:54.442Z,3.60
2022-12-06T00:41:22.785Z,3.90
2022-12-06T00:43:50.356Z,3.50
2022-12-06T00:46:18.813Z,4.00
2022-12-06T00:48:48.619Z,3.27
2022-12-06T00:51:16.680Z,3.40
2022-12-06T00:53:47.196Z,4.13
2022-12-06T00:56:14.798Z,3.73
2022-12-06T00:58:42.502Z,3.70
2022-12-06T01:01:10.706Z,3.40
2022-12-06T01:07:17.934Z,3.70
2022-12-06T01:09:45.330Z,3.03
2022-12-06T01:12:12.644Z,3.20
2022-12-06T01:14:39.978Z,3.37
2022-12-06T01:17:07.697Z,3.13
2022-12-06T01:19:34.959Z,3.20
2022-12-06T01:25:04.947Z,3.40
2022-12-06T01:27:32.465Z,3.03
2022-12-06T01:30:00.066Z,3.10
2022-12-06T01:32:29.264Z,2.57
2022-12-06T01:34:56.761Z,3.13
2022-12-06T01:37:46.170Z,3.00
2022-12-06T01:40:27.027Z,3.73
2022-12-06T01:43:27.364Z,3.13
2022-12-06T01:45:54.722Z,3.33
2022-12-06T01:48:23.916Z,3.10
2022-12-06T01:50:51.708Z,3.27
2022-12-06T01:53:22.663Z,3.43
2022-12-06T01:55:54.728Z,3.10
2022-12-06T01:58:32.741Z,2.70
2022-12-06T02:01:01.327Z,3.03
2022-12-06T02:03:29.515Z,3.00
2022-12-06T02:05:57.434Z,2.80
2022-12-06T02:12:15.664Z,3.17
2022-12-06T02:14:44.139Z,2.67
2022-12-06T02:17:16.244Z,3.10
2022-12-06T02:20:01.783Z,2.90
2022-12-06T02:22:35.520Z,3.20
2022-12-06T02:25:12.806Z,3.20
2022-12-06T02:30:39.591Z,2.90
2022-12-06T02:33:07.799Z,2.50
2022-12-06T02:35:37.932Z,3.30
2022-12-06T02:38:24.195Z,3.20
2022-12-06T02:41:14.222Z,3.40
2022-12-06T02:43:59.041Z,3.53
2022-12-06T02:46:28.288Z,3.10
2022-12-06T02:48:57.366Z,3.13
2022-12-06T02:51:25.595Z,3.70
2022-12-06T02:53:53.901Z,3.03
2022-12-06T02:56:21.299Z,2.97
2022-12-06T02:58:48.644Z,3.20
2022-12-06T03:01:17.332Z,3.20
2022-12-06T03:03:59.477Z,3.17
2022-12-06T03:06:47.423Z,2.80
2022-12-06T03:09:45.362Z,2.73
2022-12-06T03:12:37.088Z,3.30
2022-12-06T03:15:10.613Z,3.40
2022-12-06T03:17:40.184Z,2.50
2022-12-06T03:20:10.612Z,3.00
2022-12-06T03:22:40.395Z,2.90
2022-12-06T03:25:08.679Z,2.93
2022-12-06T03:27:36.972Z,2.93
2022-12-06T03:30:06.991Z,3.30
2022-12-06T03:32:37.860Z,2.73
2022-12-06T03:35:07.413Z,3.00
2022-12-06T03:38:13.209Z,3.13
2022-12-06T03:40:43.117Z,2.73
2022-12-06T03:43:10.718Z,2.70
2022-12-06T03:45:39.901Z,3.20
2022-12-06T03:48:11.646Z,3.10
2022-12-06T03:50:40.516Z,2.63
2022-12-06T03:53:07.895Z,2.30
2022-12-06T03:58:32.496Z,2.30
2022-12-06T04:01:00.031Z,2.57
2022-12-06T04:03:28.664Z,2.17
2022-12-06T04:06:14.455Z,2.33
2022-12-06T04:09:04.192Z,3.20
2022-12-06T04:11:34.954Z,2.50
2022-12-06T04:14:02.702Z,2.97
2022-12-06T04:16:29.994Z,3.50
2022-12-06T04:18:58.618Z,3.00
2022-12-06T04:21:25.869Z,2.60
2022-12-06T04:23:53.147Z,2.67
2022-12-06T04:26:21.352Z,2.70
2022-12-06T04:28:49.149Z,2.67
2022-12-06T04:31:21.749Z,2.07
2022-12-06T04:33:49.771Z,2.50
2022-12-06T04:36:18.384Z,2.33
2022-12-06T04:38:45.751Z,2.47
2022-12-06T04:41:16.804Z,2.30
2022-12-06T04:43:45.161Z,2.70
2022-12-06T04:46:13.435Z,2.70
2022-12-06T04:48:41.153Z,2.83
2022-12-06T04:51:08.420Z,2.40
2022-12-06T04:53:37.210Z,2.13
2022-12-06T04:56:13.605Z,2.87
2022-12-06T04:58:40.802Z,2.40
2022-12-06T05:01:08.240Z,2.40
2022-12-06T05:03:39.548Z,3.37
2022-12-06T05:06:09.818Z,2.87
2022-12-06T05:08:38.355Z,2.70
2022-12-06T05:11:10.807Z,2.80
2022-12-06T05:13:38.283Z,2.20
2022-12-06T05:16:06.860Z,2.60
2022-12-06T05:18:34.696Z,2.93
2022-12-06T05:21:18.546Z,2.60
2022-12-06T05:24:13.946Z,2.47
2022-12-06T05:26:42.611Z,2.80
2022-12-06T05:29:09.839Z,2.70
2022-12-06T05:31:37.369Z,3.03
2022-12-06T05:34:04.918Z,3.37
2022-12-06T05:36:32.332Z,2.80
2022-12-06T05:38:59.565Z,2.63
2022-12-06T05:41:26.943Z,2.57
2022-12-06T05:43:55.538Z,2.30
2022-12-06T05:46:22.860Z,3.03
2022-12-06T05:48:50.060Z,2.43
2022-12-06T05:51:35.848Z,3.77
2022-12-06T05:57:17.385Z,3.27
2022-12-06T05:59:46.199Z,2.83
2022-12-06T06:02:13.567Z,2.77
2022-12-06T06:04:40.914Z,2.90
2022-12-06T06:07:08.567Z,4.40
2022-12-06T06:09:35.753Z,3.77
2022-12-06T06:12:06.849Z,3.47
2022-12-06T06:14:36.896Z,3.40
2022-12-06T06:17:05.581Z,3.00
2022-12-06T06:19:32.813Z,3.33
2022-12-06T06:22:12.479Z,3.43
2022-12-06T06:24:51.716Z,2.80
2022-12-06T06:27:19.062Z,3.43
2022-12-06T06:29:46.274Z,3.30
2022-12-06T06:32:15.292Z,4.10
2022-12-06T06:34:42.579Z,3.50
2022-12-06T06:37:09.901Z,3.47
2022-12-06T06:39:38.280Z,3.10
2022-12-06T06:42:05.730Z,2.70
2022-12-06T06:44:32.941Z,3.10
2022-12-06T06:47:00.164Z,2.80
2022-12-06T06:49:28.733Z,4.30
2022-12-06T06:51:56.004Z,2.87
2022-12-06T06:54:23.716Z,2.90
2022-12-06T06:56:50.957Z,3.00
2022-12-06T06:59:18.342Z,3.40
2022-12-06T07:01:45.637Z,2.70
2022-12-06T07:04:12.881Z,2.73
2022-12-06T07:06:41.552Z,3.77
2022-12-06T07:09:08.752Z,3.00
2022-12-06T07:11:36.310Z,3.10
2022-12-06T07:14:04.169Z,3.20
2022-12-06T07:16:31.498Z,3.30
2022-12-06T07:18:58.772Z,2.87
2022-12-06T07:21:26.020Z,3.17
2022-12-06T07:23:54.574Z,3.33
2022-12-06T07:26:27.086Z,3.03
2022-12-06T07:28:54.464Z,3.17
2022-12-06T07:31:22.719Z,3.10
2022-12-06T07:33:52.334Z,2.93
2022-12-06T07:36:33.099Z,3.10
2022-12-06T07:39:15.154Z,2.93
2022-12-06T07:41:42.583Z,3.27
2022-12-06T07:44:19.436Z,2.80
2022-12-06T07:46:47.058Z,2.70
2022-12-06T07:49:14.939Z,3.40
2022-12-06T07:51:42.177Z,3.07
2022-12-06T07:57:00.676Z,3.20
2022-12-06T07:59:28.221Z,3.23
2022-12-06T08:01:55.987Z,3.03
2022-12-06T08:08:11.764Z,3.17
2022-12-06T08:10:39.042Z,3.13
2022-12-06T08:13:07.628Z,3.30
2022-12-06T08:15:34.945Z,2.77
2022-12-06T08:18:02.313Z,3.13
2022-12-06T08:20:29.589Z,2.87
2022-12-06T08:22:56.794Z,3.13
2022-12-06T08:25:24.140Z,2.80
2022-12-06T08:27:51.368Z,3.70
2022-12-06T08:30:20.002Z,3.30
2022-12-06T08:32:47.209Z,3.00
2022-12-06T08:35:33.266Z,3.00
2022-12-06T08:38:13.180Z,3.17
2022-12-06T08:40:40.410Z,3.20
2022-12-06T08:43:08.439Z,3.60
2022-12-06T08:45:37.229Z,3.53
2022-12-06T08:48:04.620Z,3.20
2022-12-06T08:50:31.865Z,5.10
2022-12-06T08:56:01.956Z,3.17
2022-12-06T08:58:30.159Z,3.37
2022-12-06T09:00:58.848Z,3.83
2022-12-06T09:03:26.952Z,3.20
2022-12-06T09:05:54.220Z,4.27
2022-12-06T09:08:43.399Z,3.93
2022-12-06T09:14:06.944Z,4.03
2022-12-06T09:16:35.663Z,3.57
2022-12-06T09:19:03.026Z,3.73
2022-12-06T09:21:30.521Z,4.33
2022-12-06T09:23:58.425Z,4.43
2022-12-06T09:26:26.137Z,4.33
2022-12-06T09:28:54.336Z,4.60
2022-12-06T09:31:21.726Z,3.20
2022-12-06T09:33:50.427Z,3.53
2022-12-06T09:36:20.336Z,4.10
2022-12-06T09:39:00.762Z,3.57
2022-12-06T09:41:56.247Z,4.10
2022-12-06T09:44:33.483Z,4.27
2022-12-06T09:47:05.469Z,4.13
2022-12-06T09:49:38.357Z,3.73
2022-12-06T09:52:13.352Z,3.63
2022-12-06T09:54:52.558Z,4.00
2022-12-06T10:00:06.083Z,4.50
2022-12-06T10:02:53.460Z,3.90
2022-12-06T10:05:28.791Z,4.67
2022-12-06T10:08:01.684Z,4.07
2022-12-06T10:10:34.160Z,4.07
2022-12-06T10:13:23.187Z,3.83
2022-12-06T10:19:33.674Z,4.00
2022-12-06T10:22:09.485Z,3.93
2022-12-06T10:24:44.380Z,4.43
2022-12-06T10:27:12.714Z,4.40
2022-12-06T10:29:46.690Z,6.00
2022-12-06T10:35:08.065Z,6.40
2022-12-06T10:37:45.276Z,5.53
2022-12-06T10:40:15.467Z,5.83
2022-12-06T10:42:45.905Z,7.17
2022-12-06T10:45:24.702Z,5.83
2022-12-06T10:48:14.546Z,5.33
2022-12-06T10:51:04.314Z,5.20
2022-12-06T10:53:41.635Z,4.03
2022-12-06T10:56:12.491Z,3.73
2022-12-06T10:58:43.775Z,3.20
2022-12-06T11:01:13.923Z,2.90
2022-12-06T11:03:43.444Z,2.70
2022-12-06T11:06:12.997Z,2.57
2022-12-06T11:08:49.518Z,2.33
2022-12-06T11:11:18.525Z,2.13
2022-12-06T11:13:47.825Z,2.20
2022-12-06T11:16:18.088Z,3.03
2022-12-06T11:19:08.779Z,2.43
2022-12-06T11:21:52.019Z,2.50
2022-12-06T11:24:22.213Z,2.13
2022-12-06T11:26:50.397Z,2.03
2022-12-06T11:29:17.648Z,1.70
2022-12-06T11:31:46.453Z,1.83
2022-12-06T11:34:15.557Z,1.93
2022-12-06T11:36:59.651Z,1.87
2022-12-06T11:39:29.643Z,2.03
2022-12-06T11:41:57.965Z,1.70
2022-12-06T11:44:26.425Z,1.80
2022-12-06T11:47:15.238Z,2.00
2022-12-06T11:49:55.511Z,1.60
2022-12-06T11:52:48.598Z,1.80
2022-12-06T11:55:26.019Z,1.70
2022-12-06T11:57:56.690Z,1.90
2022-12-06T12:03:26.462Z,1.70
2022-12-06T12:08:32.754Z,1.50
2022-12-06T12:11:02.478Z,1.50
2022-12-06T12:13:30.286Z,1.57
2022-12-06T12:16:15.747Z,1.90
2022-12-06T12:19:02.494Z,1.60
2022-12-06T12:21:36.090Z,1.77
2022-12-06T12:24:03.669Z,1.40
2022-12-06T12:26:40.031Z,1.73
2022-12-06T12:29:17.957Z,1.50
2022-12-06T12:32:02.966Z,1.80
2022-12-06T12:34:31.197Z,2.00
2022-12-06T12:36:59.618Z,1.83
2022-12-06T12:39:29.212Z,1.73
2022-12-06T12:41:57.995Z,2.57
2022-12-06T12:44:42.646Z,2.67
2022-12-06T12:47:30.576Z,2.93
2022-12-06T12:50:17.752Z,2.40
2022-12-06T12:52:45.283Z,2.77
2022-12-06T12:55:17.450Z,2.70
2022-12-06T12:57:46.945Z,3.17
2022-12-06T13:00:14.876Z,2.93
2022-12-06T13:02:42.648Z,2.40
2022-12-06T13:08:06.399Z,2.70
2022-12-06T13:10:34.772Z,2.50
2022-12-06T13:13:04.836Z,2.27
2022-12-06T13:19:14.895Z,2.20
2022-12-06T13:21:42.204Z,2.47
2022-12-06T13:24:15.308Z,1.93
2022-12-06T13:26:43.714Z,2.10
2022-12-06T13:29:18.694Z,2.07
2022-12-06T13:31:48.783Z,2.17
2022-12-06T13:37:21.504Z,1.53
2022-12-06T13:39:49.522Z,1.80
2022-12-06T13:42:40.616Z,1.57
2022-12-06T13:51:46.282Z,1.67
2022-12-06T13:54:29.303Z,2.00
2022-12-06T13:56:58.017Z,1.93
2022-12-06T13:59:49.365Z,2.00
2022-12-06T14:02:35.007Z,1.90
2022-12-06T14:05:03.025Z,2.00
2022-12-06T14:07:33.921Z,1.83
2022-12-06T14:10:08.694Z,2.00
2022-12-06T14:12:35.978Z,2.43
2022-12-06T14:15:05.346Z,2.20
2022-12-06T14:18:00.797Z,1.80
2022-12-06T14:24:07.494Z,1.83
2022-12-06T14:26:35.481Z,1.83
2022-12-06T14:29:03.187Z,2.27
2022-12-06T14:31:31.466Z,1.53
2022-12-06T14:33:58.691Z,1.80
2022-12-06T14:36:27.770Z,1.80
2022-12-06T14:41:39.851Z,1.73
2022-12-06T14:44:13.639Z,1.63
2022-12-06T14:46:41.742Z,1.70
2022-12-06T14:52:58.375Z,1.60
2022-12-06T14:55:26.644Z,1.67
2022-12-06T14:57:58.209Z,1.50
2022-12-06T15:00:28.152Z,1.67
2022-12-06T15:02:59.986Z,1.90
2022-12-06T15:05:31.619Z,1.93
2022-12-06T15:10:56.265Z,1.60
2022-12-06T15:13:24.947Z,1.70
2022-12-06T15:16:01.804Z,2.00
2022-12-06T15:22:28.132Z,1.73
2022-12-06T15:24:56.373Z,1.60
2022-12-06T15:27:24.508Z,1.80
2022-12-06T15:29:53.251Z,2.00
2022-12-06T15:32:21.994Z,2.00
2022-12-06T15:34:49.254Z,1.93
2022-12-06T15:40:18.579Z,2.00
2022-12-06T15:42:45.963Z,2.07
2022-12-06T15:45:15.760Z,1.87
2022-12-06T15:48:02.505Z,2.47
2022-12-06T15:54:05.552Z,2.57
2022-12-06T15:56:32.874Z,2.23
2022-12-06T15:59:00.137Z,1.73
2022-12-06T16:01:29.704Z,1.73
2022-12-06T16:03:57.312Z,1.80
2022-12-06T16:06:25.793Z,1.93
2022-12-06T16:08:53.739Z,1.70
2022-12-06T16:11:22.573Z,1.50
2022-12-06T16:13:50.037Z,1.40
2022-12-06T16:16:17.384Z,1.67
2022-12-06T16:22:39.671Z,1.60
2022-12-06T16:25:08.717Z,1.90
2022-12-06T16:27:35.972Z,1.90
2022-12-06T16:30:03.422Z,1.70
2022-12-06T16:32:30.782Z,1.63
2022-12-06T16:34:58.292Z,1.80
2022-12-06T16:37:31.097Z,1.60
2022-12-06T16:39:58.393Z,1.87
2022-12-06T16:42:27.063Z,2.17
2022-12-06T16:44:54.355Z,2.20
2022-12-06T16:53:30.989Z,2.37
2022-12-06T16:55:58.178Z,2.20
2022-12-06T16:58:26.944Z,2.50
2022-12-06T17:00:54.231Z,2.27
2022-12-06T17:03:21.481Z,2.30
2022-12-06T17:05:48.760Z,2.17
2022-12-06T17:08:20.376Z,2.50
2022-12-06T17:10:49.500Z,2.47
2022-12-06T17:13:16.816Z,2.30
2022-12-06T17:15:45.473Z,2.17
2022-12-06T17:22:16.801Z,2.20
2022-12-06T17:24:44.126Z,2.00
2022-12-06T17:27:11.496Z,2.07
2022-12-06T17:29:39.019Z,2.07
2022-12-06T17:32:08.093Z,1.80
2022-12-06T17:34:35.435Z,2.50
2022-12-06T17:37:02.761Z,3.40
2022-12-06T17:39:30.147Z,3.00
2022-12-06T17:41:57.444Z,2.20
2022-12-06T17:44:24.784Z,2.90
2022-12-06T17:46:52.335Z,2.40
2022-12-06T17:49:21.907Z,2.50
2022-12-06T17:51:49.481Z,2.70
2022-12-06T17:54:18.293Z,2.30
2022-12-06T17:56:46.064Z,2.60
2022-12-06T17:59:14.526Z,3.37
2022-12-06T18:02:13.439Z,2.00
2022-12-06T18:04:31.929Z,2.60
2022-12-06T18:07:01.903Z,1.97
2022-12-06T18:09:29.359Z,2.10
2022-12-06T18:11:56.625Z,1.90
2022-12-06T18:14:24.255Z,2.27
2022-12-06T18:16:51.937Z,2.13
2022-12-06T18:19:21.022Z,2.20
2022-12-06T18:21:49.987Z,1.70
2022-12-06T18:24:22.647Z,2.67
2022-12-06T18:26:51.447Z,2.43
2022-12-06T18:29:19.736Z,2.40
2022-12-06T18:31:47.071Z,2.93
2022-12-06T18:34:14.681Z,2.10
2022-12-06T18:36:42.016Z,2.47
2022-12-06T18:39:15.000Z,2.77
2022-12-06T18:41:43.351Z,3.17
2022-12-06T18:44:11.456Z,2.87
2022-12-06T18:46:39.426Z,2.60
2022-12-06T18:49:07.114Z,2.37
2022-12-06T18:51:35.556Z,2.90
2022-12-06T18:54:03.122Z,2.80
2022-12-06T18:56:32.867Z,2.70
2022-12-06T18:59:00.548Z,3.43
2022-12-06T19:01:29.102Z,2.47
2022-12-06T19:03:58.072Z,2.53
2022-12-06T19:06:26.507Z,2.90
2022-12-06T19:08:54.818Z,2.27
2022-12-06T19:11:22.451Z,2.40
2022-12-06T19:13:54.760Z,2.20
2022-12-06T19:16:22.748Z,2.50
2022-12-06T19:18:50.635Z,3.07
2022-12-06T19:21:18.558Z,2.70
2022-12-06T19:23:46.053Z,2.57
2022-12-06T19:26:13.735Z,2.37
2022-12-06T19:28:41.468Z,2.60
2022-12-06T19:31:11.301Z,2.10
2022-12-06T19:33:39.586Z,2.60
2022-12-06T19:36:08.389Z,2.27
2022-12-06T19:38:36.440Z,2.70
2022-12-06T19:41:04.146Z,2.10
2022-12-06T19:43:31.764Z,2.67
2022-12-06T19:46:07.736Z,2.10
2022-12-06T19:48:36.713Z,2.70
2022-12-06T19:51:03.993Z,2.27
2022-12-06T19:53:33.273Z,3.07
2022-12-06T19:56:00.855Z,2.30
2022-12-06T19:58:28.377Z,2.50
2022-12-06T20:00:55.647Z,2.47
2022-12-06T20:03:22.914Z,2.27
2022-12-06T20:05:59.869Z,2.47
2022-12-06T20:08:27.281Z,2.20
2022-12-06T20:10:54.623Z,2.27
2022-12-06T20:13:23.399Z,2.23
2022-12-06T20:15:50.750Z,2.33
2022-12-06T20:18:18.490Z,2.27
2022-12-06T20:20:47.195Z,2.63
2022-12-06T20:23:15.810Z,2.40
2022-12-06T20:25:43.211Z,2.13
2022-12-06T20:28:13.544Z,2.70
2022-12-06T20:30:41.192Z,2.17
2022-12-06T20:33:08.659Z,2.40
2022-12-06T20:35:37.383Z,2.30
2022-12-06T20:38:04.601Z,2.63
2022-12-06T20:40:34.567Z,2.10
2022-12-06T20:43:01.911Z,2.27
2022-12-06T20:45:29.258Z,2.70
2022-12-06T20:47:56.493Z,2.97
2022-12-06T20:50:23.805Z,2.90
2022-12-06T20:52:51.059Z,2.23
2022-12-06T20:55:18.469Z,2.93
2022-12-06T20:57:47.240Z,2.73
2022-12-06T21:00:15.226Z,2.57
2022-12-06T21:02:42.719Z,2.70
2022-12-06T21:05:10.315Z,3.67
2022-12-06T21:07:37.747Z,2.50
2022-12-06T21:10:05.650Z,2.83
2022-12-06T21:12:33.001Z,1.90
2022-12-06T21:15:01.615Z,2.83
2022-12-06T21:17:28.898Z,2.83
2022-12-06T21:19:56.178Z,2.77
2022-12-06T21:22:23.540Z,2.80
2022-12-06T21:24:50.982Z,2.53
2022-12-06T21:27:18.352Z,3.00
2022-12-06T21:29:45.878Z,2.50
2022-12-06T21:32:15.148Z,2.60
2022-12-06T21:34:46.404Z,2.73
2022-12-06T21:37:14.025Z,2.30
2022-12-06T21:39:41.295Z,3.50
2022-12-06T21:42:08.529Z,1.93
2022-12-06T21:44:35.771Z,2.50
2022-12-06T21:47:03.021Z,4.27
2022-12-06T21:49:31.713Z,2.77
2022-12-06T21:52:05.884Z,3.07
2022-12-06T21:54:36.255Z,4.30
2022-12-06T21:57:03.497Z,3.90
2022-12-06T21:59:30.876Z,4.43
2022-12-06T22:01:58.314Z,3.63
2022-12-06T22:04:25.683Z,4.47
2022-12-06T22:06:54.580Z,3.37
2022-12-06T22:09:21.895Z,2.87
2022-12-06T22:11:49.638Z,3.10
2022-12-06T22:14:16.892Z,2.93
2022-12-06T22:16:44.130Z,3.57
2022-12-06T22:19:11.374Z,3.43
2022-12-06T22:21:38.644Z,2.67
2022-12-06T22:24:08.329Z,2.90
2022-12-06T22:26:35.933Z,2.93
2022-12-06T22:29:03.258Z,2.87
2022-12-06T22:31:31.568Z,2.80
2022-12-06T22:33:59.074Z,3.00
2022-12-06T22:36:27.025Z,3.00
2022-12-06T22:38:54.760Z,3.10
2022-12-06T22:41:24.298Z,2.77
2022-12-06T22:43:51.942Z,2.93
2022-12-06T22:46:19.421Z,3.33
2022-12-06T22:48:46.846Z,2.90
2022-12-06T22:51:15.401Z,3.13
2022-12-06T22:53:43.315Z,2.87
2022-12-06T22:56:10.653Z,3.53
2022-12-06T22:58:39.512Z,3.30
2022-12-06T23:01:15.886Z,3.10
2022-12-06T23:03:44.123Z,3.10
2022-12-06T23:06:11.603Z,3.23
2022-12-06T23:08:38.938Z,2.50
2022-12-06T23:11:07.847Z,2.60
2022-12-06T23:13:35.366Z,3.37
2022-12-06T23:16:05.063Z,3.43
2022-12-06T23:18:32.634Z,3.33
2022-12-06T23:21:04.278Z,2.97
2022-12-06T23:23:31.638Z,3.07
2022-12-06T23:26:01.900Z,2.87
2022-12-06T23:28:29.508Z,3.13
2022-12-06T23:30:56.897Z,3.07
2022-12-06T23:33:25.822Z,3.40
2022-12-06T23:36:01.217Z,2.40
2022-12-06T23:38:28.642Z,3.90
2022-12-06T23:40:55.987Z,3.00
2022-12-06T23:43:23.315Z,2.20
2022-12-06T23:45:58.470Z,3.20
2022-12-06T23:48:29.061Z,2.53
2022-12-06T23:51:00.004Z,2.70
2022-12-06T23:53:28.057Z,2.80
2022-12-06T23:55:57.474Z,2.50
2022-12-06T23:58:25.085Z,3.03
